createdAt,value
2022-08-06T00:00:06.415Z,80.73
2022-08-06T00:02:31.029Z,81.29
2022-08-06T00:05:06.484Z,80.80
2022-08-06T00:07:45.113Z,80.57
2022-08-06T00:10:17.540Z,79.91
2022-08-06T00:12:48.169Z,80.27
2022-08-06T00:15:19.946Z,80.35
2022-08-06T00:18:06.898Z,80.31
2022-08-06T00:20:41.823Z,80.67
2022-08-06T00:23:16.622Z,80.71
2022-08-06T00:25:52.409Z,80.67
2022-08-06T00:28:30.674Z,81.10
2022-08-06T00:31:09.829Z,81.59
2022-08-06T00:33:50.031Z,82.16
2022-08-06T00:36:28.041Z,82.50
2022-08-06T00:38:57.201Z,82.44
2022-08-06T00:41:27.344Z,82.21
2022-08-06T00:43:59.254Z,82.69
2022-08-06T00:46:30.496Z,82.78
2022-08-06T00:48:58.367Z,82.61
2022-08-06T00:51:50.380Z,82.82
2022-08-06T00:54:28.188Z,82.49
2022-08-06T00:57:03.500Z,82.89
2022-08-06T00:59:35.784Z,83.04
2022-08-06T01:02:09.746Z,83.03
2022-08-06T01:04:38.523Z,82.74
2022-08-06T01:07:09.184Z,82.53
2022-08-06T01:09:46.032Z,82.75
2022-08-06T01:12:33.608Z,82.60
2022-08-06T01:15:15.453Z,82.13
2022-08-06T01:17:56.270Z,81.91
2022-08-06T01:21:56.516Z,80.89
2022-08-06T01:23:54.217Z,81.10
2022-08-06T01:26:36.455Z,81.82
2022-08-06T01:29:14.445Z,82.15
2022-08-06T01:31:51.005Z,81.74
2022-08-06T01:34:31.419Z,81.45
2022-08-06T01:37:07.661Z,81.86
2022-08-06T01:40:01.772Z,81.28
2022-08-06T01:42:35.808Z,81.13
2022-08-06T01:45:09.527Z,80.94
2022-08-06T01:47:53.658Z,81.30
2022-08-06T01:50:27.975Z,81.60
2022-08-06T01:52:59.948Z,81.36
2022-08-06T01:55:42.557Z,81.04
2022-08-06T01:58:27.007Z,80.97
2022-08-06T02:00:58.427Z,81.70
2022-08-06T02:03:39.017Z,81.70
2022-08-06T02:06:23.315Z,82.03
2022-08-06T02:09:16.225Z,81.82
2022-08-06T02:12:02.531Z,83.03
2022-08-06T02:14:36.356Z,83.17
2022-08-06T02:17:13.929Z,82.77
2022-08-06T02:19:59.620Z,83.73
2022-08-06T02:22:31.171Z,83.77
2022-08-06T02:25:14.618Z,83.59
2022-08-06T02:27:59.531Z,84.17
2022-08-06T02:30:36.690Z,85.08
2022-08-06T02:33:08.452Z,84.56
2022-08-06T02:35:44.149Z,85.80
2022-08-06T02:38:17.491Z,86.22
2022-08-06T02:40:57.011Z,86.29
2022-08-06T02:43:33.923Z,86.53
2022-08-06T02:46:11.250Z,86.70
2022-08-06T02:48:47.228Z,86.93
2022-08-06T02:51:43.425Z,86.88
2022-08-06T02:54:12.338Z,87.18
2022-08-06T02:56:46.349Z,87.13
2022-08-06T02:59:22.117Z,87.42
2022-08-06T03:01:53.315Z,87.36
2022-08-06T03:04:31.987Z,87.81
2022-08-06T03:07:06.672Z,88.27
2022-08-06T03:09:56.830Z,87.82
2022-08-06T03:12:29.418Z,87.65
2022-08-06T03:15:15.173Z,87.81
2022-08-06T03:18:03.989Z,88.08
2022-08-06T03:20:35.744Z,87.23
2022-08-06T03:23:08.550Z,87.38
2022-08-06T03:25:41.965Z,86.91
2022-08-06T03:28:20.491Z,86.36
2022-08-06T03:30:53.593Z,87.60
2022-08-06T03:33:52.867Z,86.64
2022-08-06T03:36:17.658Z,85.98
2022-08-06T03:38:54.383Z,86.45
2022-08-06T03:41:28.962Z,86.84
2022-08-06T03:44:04.292Z,86.68
2022-08-06T03:46:55.118Z,86.19
2022-08-06T03:49:26.416Z,86.86
2022-08-06T03:52:14.825Z,86.31
2022-08-06T03:54:50.470Z,86.31
2022-08-06T03:57:29.772Z,86.34
2022-08-06T04:00:11.419Z,86.59
2022-08-06T04:02:45.757Z,85.96
2022-08-06T04:05:22.478Z,86.47
2022-08-06T04:07:56.965Z,86.05
2022-08-06T04:10:33.257Z,86.21
2022-08-06T04:13:38.005Z,85.93
2022-08-06T04:15:57.327Z,85.80
2022-08-06T04:18:28.199Z,86.76
2022-08-06T04:21:19.951Z,86.24
2022-08-06T04:23:48.437Z,86.05
2022-08-06T04:26:20.592Z,86.17
2022-08-06T04:28:57.822Z,86.15
2022-08-06T04:32:03.015Z,85.95
2022-08-06T04:34:22.192Z,86.40
2022-08-06T04:36:56.066Z,86.00
2022-08-06T04:39:37.872Z,86.11
2022-08-06T04:42:13.712Z,86.00
2022-08-06T04:44:45.047Z,85.06
2022-08-06T04:47:14.818Z,84.83
2022-08-06T04:50:02.001Z,85.22
2022-08-06T04:52:49.367Z,85.43
2022-08-06T04:55:24.024Z,85.77
2022-08-06T04:57:57.310Z,85.76
2022-08-06T05:00:59.296Z,85.75
2022-08-06T05:03:52.896Z,85.46
2022-08-06T05:06:12.869Z,85.93
2022-08-06T05:08:43.749Z,85.89
2022-08-06T05:11:26.906Z,85.36
2022-08-06T05:13:59.695Z,84.63
2022-08-06T05:16:29.691Z,85.75
2022-08-06T05:19:21.121Z,85.03
2022-08-06T05:22:10.467Z,85.20
2022-08-06T05:25:03.785Z,85.10
2022-08-06T05:27:49.318Z,85.12
2022-08-06T05:30:16.945Z,85.07
2022-08-06T05:32:45.785Z,86.01
2022-08-06T05:35:17.938Z,86.29
2022-08-06T05:38:01.997Z,86.23
2022-08-06T05:40:53.815Z,86.16
2022-08-06T05:43:26.048Z,86.02
2022-08-06T05:46:17.297Z,85.93
2022-08-06T05:48:55.242Z,86.24
2022-08-06T05:51:43.745Z,86.44
2022-08-06T05:54:24.050Z,86.91
2022-08-06T05:57:04.524Z,85.85
2022-08-06T05:59:57.362Z,85.92
2022-08-06T06:02:28.476Z,86.16
2022-08-06T06:06:05.767Z,85.86
2022-08-06T06:08:09.909Z,85.83
2022-08-06T06:10:38.125Z,85.85
2022-08-06T06:13:25.373Z,86.46
2022-08-06T06:16:11.509Z,84.64
2022-08-06T06:19:00.342Z,84.58
2022-08-06T06:21:49.103Z,85.16
2022-08-06T06:24:23.906Z,84.61
2022-08-06T06:26:58.015Z,83.16
2022-08-06T06:30:06.049Z,82.60
2022-08-06T06:32:41.620Z,82.81
2022-08-06T06:35:22.579Z,82.07
2022-08-06T06:38:00.687Z,81.53
2022-08-06T06:40:53.066Z,81.90
2022-08-06T06:43:43.869Z,80.22
2022-08-06T06:46:37.165Z,79.97
2022-08-06T06:49:59.749Z,79.40
2022-08-06T06:52:09.324Z,79.21
2022-08-06T06:54:59.995Z,79.39
2022-08-06T06:57:42.696Z,78.28
2022-08-06T07:00:45.563Z,77.57
2022-08-06T07:03:05.450Z,76.88
2022-08-06T07:06:05.536Z,77.16
2022-08-06T07:08:42.254Z,76.79
2022-08-06T07:11:20.921Z,76.85
2022-08-06T07:13:59.069Z,76.32
2022-08-06T07:16:36.431Z,77.58
2022-08-06T07:19:10.364Z,76.58
2022-08-06T07:21:42.194Z,75.77
2022-08-06T07:24:36.999Z,76.21
2022-08-06T07:27:04.834Z,75.76
2022-08-06T07:29:59.690Z,75.54
2022-08-06T07:32:31.265Z,73.99
2022-08-06T07:35:01.291Z,73.34
2022-08-06T07:37:46.453Z,72.97
2022-08-06T07:40:28.709Z,72.01
2022-08-06T07:43:04.551Z,71.87
2022-08-06T07:45:55.657Z,71.37
2022-08-06T07:48:32.479Z,70.97
2022-08-06T07:51:04.742Z,71.18
2022-08-06T07:53:52.825Z,72.97
2022-08-06T07:56:27.929Z,72.95
2022-08-06T07:58:58.557Z,71.78
2022-08-06T08:01:36.797Z,70.38
2022-08-06T08:04:34.902Z,68.60
2022-08-06T08:07:13.125Z,69.13
2022-08-06T08:10:01.848Z,68.49
2022-08-06T08:12:35.723Z,68.05
2022-08-06T08:15:06.565Z,69.05
2022-08-06T08:17:45.830Z,68.21
2022-08-06T08:20:16.739Z,65.25
2022-08-06T08:22:54.079Z,66.01
2022-08-06T08:25:42.146Z,67.30
2022-08-06T08:28:15.067Z,64.96
2022-08-06T08:30:47.995Z,66.27
2022-08-06T08:33:19.542Z,65.81
2022-08-06T08:35:49.988Z,64.52
2022-08-06T08:38:29.678Z,63.52
2022-08-06T08:41:03.264Z,62.05
2022-08-06T08:43:58.692Z,60.82
2022-08-06T08:46:30.679Z,60.98
2022-08-06T08:49:07.527Z,59.09
2022-08-06T08:51:42.964Z,57.29
2022-08-06T08:54:16.692Z,58.74
2022-08-06T08:57:10.263Z,58.72
2022-08-06T08:59:57.989Z,58.25
2022-08-06T09:02:27.838Z,57.64
2022-08-06T09:04:58.777Z,57.77
2022-08-06T09:07:36.596Z,56.58
2022-08-06T09:10:09.342Z,56.07
2022-08-06T09:12:48.169Z,56.51
2022-08-06T09:15:19.010Z,56.24
2022-08-06T09:18:25.539Z,56.50
2022-08-06T09:20:36.948Z,56.46
2022-08-06T09:23:07.576Z,55.39
2022-08-06T09:25:49.598Z,55.23
2022-08-06T09:28:36.545Z,55.29
2022-08-06T09:31:22.005Z,53.46
2022-08-06T09:34:18.843Z,54.32
2022-08-06T09:36:57.101Z,54.47
2022-08-06T09:39:46.741Z,53.63
2022-08-06T09:42:43.563Z,52.46
2022-08-06T09:45:17.550Z,52.40
2022-08-06T09:47:47.239Z,52.41
2022-08-06T09:50:38.747Z,53.49
2022-08-06T09:53:14.310Z,54.45
2022-08-06T09:55:44.679Z,53.38
2022-08-06T09:58:13.574Z,52.59
2022-08-06T10:00:46.379Z,52.67
2022-08-06T10:04:04.859Z,52.72
2022-08-06T10:06:14.926Z,52.84
2022-08-06T10:08:49.444Z,52.69
2022-08-06T10:11:41.614Z,52.74
2022-08-06T10:14:26.240Z,52.74
2022-08-06T10:17:09.740Z,52.79
2022-08-06T10:19:38.372Z,52.71
2022-08-06T10:22:07.033Z,51.64
2022-08-06T10:24:42.102Z,51.11
2022-08-06T10:27:20.054Z,50.66
2022-08-06T10:29:52.624Z,50.10
2022-08-06T10:32:33.570Z,49.42
2022-08-06T10:35:18.949Z,48.53
2022-08-06T10:37:57.508Z,47.68
2022-08-06T10:40:30.593Z,48.83
2022-08-06T10:43:00.977Z,49.04
2022-08-06T10:45:47.115Z,48.82
2022-08-06T10:48:58.405Z,50.39
2022-08-06T10:51:17.924Z,51.33
2022-08-06T10:54:18.937Z,50.30
2022-08-06T10:56:47.910Z,49.68
2022-08-06T10:59:19.088Z,48.28
2022-08-06T11:01:54.893Z,45.26
2022-08-06T11:04:37.523Z,45.73
2022-08-06T11:08:09.491Z,45.70
2022-08-06T11:10:49.643Z,45.90
2022-08-06T11:13:36.985Z,45.98
2022-08-06T11:16:27.794Z,45.75
2022-08-06T11:19:06.928Z,41.33
2022-08-06T11:21:58.643Z,39.88
2022-08-06T11:24:32.244Z,37.04
2022-08-06T11:27:11.440Z,36.42
2022-08-06T11:30:09.460Z,39.89
2022-08-06T11:32:48.739Z,41.84
2022-08-06T11:35:53.837Z,44.71
2022-08-06T11:39:09.753Z,45.19
2022-08-06T11:41:54.233Z,41.11
2022-08-06T11:44:30.022Z,36.93
2022-08-06T11:47:30.513Z,38.44
2022-08-06T11:50:04.577Z,36.04
2022-08-06T11:52:45.046Z,35.26
2022-08-06T11:55:22.528Z,36.16
2022-08-06T11:58:23.750Z,37.34
2022-08-06T12:01:33.725Z,34.77
2022-08-06T12:04:06.340Z,33.20
2022-08-06T12:06:38.766Z,33.21
2022-08-06T12:09:16.088Z,32.02
2022-08-06T12:11:53.926Z,30.92
2022-08-06T12:14:48.962Z,29.42
2022-08-06T12:17:19.509Z,33.38
2022-08-06T12:20:01.375Z,34.93
2022-08-06T12:22:30.584Z,31.10
2022-08-06T12:25:10.576Z,32.51
2022-08-06T12:27:50.750Z,33.21
2022-08-06T12:30:48.454Z,32.06
2022-08-06T12:33:17.842Z,31.38
2022-08-06T12:35:53.807Z,33.55
2022-08-06T12:38:28.494Z,35.22
2022-08-06T12:41:09.665Z,36.29
2022-08-06T12:43:56.451Z,38.31
2022-08-06T12:46:29.397Z,39.03
2022-08-06T12:49:01.593Z,38.74
2022-08-06T12:51:35.629Z,39.08
2022-08-06T12:54:06.901Z,38.99
2022-08-06T12:56:39.164Z,37.77
2022-08-06T12:59:16.041Z,37.95
2022-08-06T13:02:08.434Z,38.34
2022-08-06T13:04:44.469Z,38.03
2022-08-06T13:07:14.800Z,36.76
2022-08-06T13:10:16.801Z,33.39
2022-08-06T13:14:03.347Z,29.74
2022-08-06T13:15:26.484Z,30.82
2022-08-06T13:18:41.028Z,32.76
2022-08-06T13:21:06.330Z,32.35
2022-08-06T13:23:46.478Z,32.54
2022-08-06T13:26:26.220Z,34.62
2022-08-06T13:30:31.797Z,36.09
2022-08-06T13:32:27.871Z,38.15
2022-08-06T13:35:02.021Z,38.60
2022-08-06T13:37:57.621Z,38.58
2022-08-06T13:40:47.220Z,37.34
2022-08-06T13:43:38.938Z,35.87
2022-08-06T13:46:15.411Z,35.91
2022-08-06T13:48:49.017Z,35.87
2022-08-06T13:51:22.722Z,35.84
2022-08-06T13:53:58.220Z,36.56
2022-08-06T13:56:31.311Z,36.00
2022-08-06T13:59:01.892Z,36.87
2022-08-06T14:01:45.182Z,37.87
2022-08-06T14:04:21.083Z,38.46
2022-08-06T14:06:51.260Z,38.24
2022-08-06T14:09:22.459Z,37.66
2022-08-06T14:11:54.056Z,37.27
2022-08-06T14:14:23.358Z,36.87
2022-08-06T14:16:55.590Z,37.09
2022-08-06T14:20:16.019Z,36.63
2022-08-06T14:22:17.226Z,36.19
2022-08-06T14:24:52.777Z,35.90
2022-08-06T14:27:23.929Z,36.22
2022-08-06T14:30:27.293Z,37.27
2022-08-06T14:32:49.012Z,37.84
2022-08-06T14:35:22.593Z,37.60
2022-08-06T14:37:56.315Z,37.61
2022-08-06T14:41:01.586Z,36.33
2022-08-06T14:43:54.697Z,35.90
2022-08-06T14:46:27.442Z,36.03
2022-08-06T14:49:05.564Z,35.73
2022-08-06T14:52:20.530Z,35.59
2022-08-06T14:54:31.276Z,35.13
2022-08-06T14:57:02.401Z,34.65
2022-08-06T14:59:48.299Z,34.09
2022-08-06T15:02:20.934Z,35.24
2022-08-06T15:04:52.915Z,34.93
2022-08-06T15:07:25.506Z,34.53
2022-08-06T15:10:06.014Z,35.54
2022-08-06T15:12:50.002Z,36.50
2022-08-06T15:15:26.964Z,36.82
2022-08-06T15:18:25.212Z,38.03
2022-08-06T15:20:53.682Z,38.18
2022-08-06T15:23:24.329Z,37.86
2022-08-06T15:26:46.829Z,36.90
2022-08-06T15:28:52.236Z,36.00
2022-08-06T15:31:23.128Z,35.82
2022-08-06T15:33:51.296Z,36.05
2022-08-06T15:36:19.459Z,35.71
2022-08-06T15:38:48.769Z,35.29
2022-08-06T15:41:19.841Z,34.44
2022-08-06T15:43:51.314Z,33.93
2022-08-06T15:46:28.369Z,35.16
2022-08-06T15:48:57.052Z,34.72
2022-08-06T15:51:31.319Z,34.56
2022-08-06T15:54:01.400Z,33.36
2022-08-06T15:56:51.495Z,31.87
2022-08-06T15:59:21.080Z,31.30
2022-08-06T16:02:01.087Z,30.91
2022-08-06T16:04:36.373Z,32.09
2022-08-06T16:07:06.743Z,31.38
2022-08-06T16:10:00.687Z,30.86
2022-08-06T16:12:25.453Z,32.10
2022-08-06T16:14:57.867Z,32.50
2022-08-06T16:17:53.312Z,31.19
2022-08-06T16:20:20.669Z,31.77
2022-08-06T16:22:52.509Z,31.62
2022-08-06T16:25:23.758Z,32.79
2022-08-06T16:27:52.582Z,33.11
2022-08-06T16:30:21.388Z,33.51
2022-08-06T16:32:49.840Z,32.68
2022-08-06T16:35:21.400Z,32.95
2022-08-06T16:37:53.039Z,33.43
2022-08-06T16:40:26.569Z,33.33
2022-08-06T16:42:56.564Z,33.45
2022-08-06T16:45:37.055Z,33.67
2022-08-06T16:48:25.211Z,33.97
2022-08-06T16:50:54.313Z,33.85
2022-08-06T16:54:12.918Z,34.43
2022-08-06T16:56:19.785Z,33.74
2022-08-06T16:58:53.171Z,34.39
2022-08-06T17:04:09.851Z,34.39
2022-08-06T17:06:54.046Z,33.89
2022-08-06T17:09:23.708Z,34.13
2022-08-06T17:11:58.453Z,34.39
2022-08-06T17:14:32.608Z,34.17
2022-08-06T17:17:06.736Z,34.30
2022-08-06T17:25:21.837Z,34.55
2022-08-06T17:27:57.637Z,34.07
2022-08-06T17:30:26.472Z,34.56
2022-08-06T17:32:55.352Z,34.89
2022-08-06T17:36:29.309Z,33.94
2022-08-06T17:38:15.680Z,34.07
2022-08-06T17:43:57.010Z,34.31
2022-08-06T17:46:24.990Z,34.85
2022-08-06T17:48:54.869Z,35.95
2022-08-06T17:51:33.373Z,36.00
2022-08-06T17:54:26.504Z,35.87
2022-08-06T17:56:51.475Z,35.91
2022-08-06T17:59:21.328Z,36.50
2022-08-06T18:01:54.232Z,36.36
2022-08-06T18:04:31.130Z,36.14
2022-08-06T18:07:11.722Z,36.36
2022-08-06T18:10:11.176Z,36.87
2022-08-06T18:12:32.755Z,36.66
2022-08-06T18:15:02.440Z,36.22
2022-08-06T18:17:59.642Z,37.56
2022-08-06T18:20:32.583Z,37.92
2022-08-06T18:23:04.124Z,37.38
2022-08-06T18:25:55.509Z,37.70
2022-08-06T18:28:31.596Z,38.15
2022-08-06T18:31:10.664Z,37.50
2022-08-06T18:33:46.186Z,37.22
2022-08-06T18:36:16.667Z,37.79
2022-08-06T18:38:45.588Z,38.52
2022-08-06T18:41:17.533Z,39.11
2022-08-06T18:43:49.036Z,39.75
2022-08-06T18:46:55.464Z,39.92
2022-08-06T18:49:26.847Z,40.74
2022-08-06T18:52:06.136Z,41.15
2022-08-06T18:54:56.805Z,41.06
2022-08-06T18:57:38.095Z,41.45
2022-08-06T19:00:33.297Z,41.80
2022-08-06T19:03:10.750Z,41.45
2022-08-06T19:05:50.139Z,41.51
2022-08-06T19:08:29.090Z,41.87
2022-08-06T19:11:05.782Z,42.91
2022-08-06T19:14:16.704Z,42.58
2022-08-06T19:16:40.507Z,42.72
2022-08-06T19:19:46.093Z,42.77
2022-08-06T19:22:22.735Z,42.98
2022-08-06T19:24:57.451Z,42.75
2022-08-06T19:28:30.717Z,43.12
2022-08-06T19:30:41.563Z,43.40
2022-08-06T19:33:16.460Z,43.24
2022-08-06T19:36:08.941Z,43.58
2022-08-06T19:38:40.229Z,44.38
2022-08-06T19:41:55.811Z,44.11
2022-08-06T19:45:03.386Z,44.66
2022-08-06T19:47:30.184Z,45.18
2022-08-06T19:50:02.176Z,45.17
2022-08-06T19:52:32.549Z,45.51
2022-08-06T19:56:08.863Z,45.69
2022-08-06T19:57:59.419Z,45.32
2022-08-06T20:00:51.855Z,45.78
2022-08-06T20:03:31.675Z,45.87
2022-08-06T20:06:19.868Z,46.27
2022-08-06T20:09:26.918Z,46.55
2022-08-06T20:12:03.209Z,46.88
2022-08-06T20:17:49.363Z,47.14
2022-08-06T20:20:29.075Z,47.08
2022-08-06T20:23:11.490Z,47.38
2022-08-06T20:26:08.543Z,47.65
2022-08-06T20:29:10.362Z,47.67
2022-08-06T20:31:32.739Z,47.30
2022-08-06T20:34:04.336Z,47.45
2022-08-06T20:36:38.114Z,47.98
2022-08-06T20:39:08.174Z,47.68
2022-08-06T20:42:03.284Z,47.76
2022-08-06T20:44:28.410Z,47.97
2022-08-06T20:47:44.083Z,48.69
2022-08-06T20:50:03.582Z,48.60
2022-08-06T20:52:33.812Z,49.23
2022-08-06T20:55:02.534Z,49.34
2022-08-06T20:57:41.783Z,49.53
2022-08-06T21:00:28.210Z,49.92
2022-08-06T21:03:28.921Z,50.13
2022-08-06T21:05:51.126Z,49.80
2022-08-06T21:08:26.510Z,50.39
2022-08-06T21:10:57.664Z,50.90
2022-08-06T21:13:29.713Z,50.87
2022-08-06T21:16:14.853Z,51.35
2022-08-06T21:18:54.278Z,51.96
2022-08-06T21:21:26.346Z,52.17
2022-08-06T21:23:56.561Z,52.80
2022-08-06T21:26:34.853Z,53.83
2022-08-06T21:29:14.310Z,54.52
2022-08-06T21:31:59.499Z,54.24
2022-08-06T21:34:29.733Z,54.39
2022-08-06T21:36:58.497Z,54.10
2022-08-06T21:39:30.220Z,53.84
2022-08-06T21:42:15.602Z,53.77
2022-08-06T21:44:47.359Z,53.91
2022-08-06T21:47:26.379Z,53.85
2022-08-06T21:50:19.461Z,54.20
2022-08-06T21:52:48.637Z,54.60
2022-08-06T21:56:39.070Z,54.67
2022-08-06T21:58:05.713Z,54.52
2022-08-06T22:00:44.554Z,55.41
2022-08-06T22:04:38.581Z,55.55
2022-08-06T22:06:20.741Z,56.17
2022-08-06T22:08:54.166Z,56.60
2022-08-06T22:12:39.380Z,57.26
2022-08-06T22:14:12.073Z,57.76
2022-08-06T22:16:48.059Z,58.18
2022-08-06T22:19:17.878Z,58.17
2022-08-06T22:21:50.792Z,57.90
2022-08-06T22:24:22.575Z,57.66
2022-08-06T22:26:56.303Z,57.45
2022-08-06T22:29:27.958Z,58.49
2022-08-06T22:32:01.677Z,59.26
2022-08-06T22:34:36.445Z,60.28
2022-08-06T22:37:14.452Z,60.42
2022-08-06T22:39:46.687Z,58.82
2022-08-06T22:42:20.955Z,58.87
2022-08-06T22:45:46.949Z,59.00
2022-08-06T22:47:55.904Z,58.44
2022-08-06T22:50:32.903Z,58.79
2022-08-06T22:53:02.883Z,58.54
2022-08-06T22:55:49.246Z,58.81
2022-08-06T22:59:04.595Z,58.99
2022-08-06T23:01:23.151Z,59.45
2022-08-06T23:03:56.732Z,60.17
2022-08-06T23:06:32.115Z,62.19
2022-08-06T23:09:02.702Z,62.52
2022-08-06T23:11:33.422Z,63.29
2022-08-06T23:14:01.727Z,63.67
2022-08-06T23:16:31.987Z,63.12
2022-08-06T23:19:07.557Z,63.26
2022-08-06T23:21:50.822Z,61.59
2022-08-06T23:24:32.881Z,61.69
2022-08-06T23:27:02.268Z,62.08
2022-08-06T23:29:35.017Z,62.22
2022-08-06T23:32:22.060Z,62.24
2022-08-06T23:34:51.563Z,60.99
2022-08-06T23:37:19.994Z,61.77
2022-08-06T23:40:12.169Z,61.70
2022-08-06T23:42:36.265Z,62.84
2022-08-06T23:45:04.501Z,64.02
2022-08-06T23:47:52.312Z,64.54
2022-08-06T23:50:25.660Z,65.31
2022-08-06T23:53:06.417Z,65.57
2022-08-06T23:55:37.206Z,64.86
2022-08-06T23:58:08.363Z,63.52
